sensor_id;sensor_type;location;lat;lon;timestamp;pressure;altitude;pressure_sealevel;temperature;humidity
75609;BME280;64194;51.044;13.780;2022-12-10T00:02:36;99415.66;;;3.31;71.66
75609;BME280;64194;51.044;13.780;2022-12-10T00:06:38;99417.66;;;3.26;71.63
75609;BME280;64194;51.044;13.780;2022-12-10T00:10:40;99415.34;;;3.19;72.03
75609;BME280;64194;51.044;13.780;2022-12-10T00:14:42;99413.16;;;3.10;72.04
75609;BME280;64194;51.044;13.780;2022-12-10T00:18:44;99413.28;;;3.07;72.02
75609;BME280;64194;51.044;13.780;2022-12-10T00:22:46;99407.63;;;3.16;71.73
75609;BME280;64194;51.044;13.780;2022-12-10T00:26:47;99401.97;;;3.25;71.28
75609;BME280;64194;51.044;13.780;2022-12-10T00:30:49;99410.41;;;3.31;71.20
75609;BME280;64194;51.044;13.780;2022-12-10T00:34:51;99412.25;;;3.29;71.23
75609;BME280;64194;51.044;13.780;2022-12-10T00:38:53;99421.47;;;3.19;71.80
75609;BME280;64194;51.044;13.780;2022-12-10T00:42:54;99417.81;;;3.22;71.58
75609;BME280;64194;51.044;13.780;2022-12-10T00:46:56;99415.66;;;3.31;71.25
75609;BME280;64194;51.044;13.780;2022-12-10T00:51:05;99421.81;;;3.30;71.32
75609;BME280;64194;51.044;13.780;2022-12-10T00:55:07;99421.81;;;3.30;71.18
75609;BME280;64194;51.044;13.780;2022-12-10T00:59:09;99427.72;;;3.35;71.27
75609;BME280;64194;51.044;13.780;2022-12-10T01:03:10;99418.97;;;3.35;70.98
75609;BME280;64194;51.044;13.780;2022-12-10T01:07:13;99427.97;;;3.29;70.93
75609;BME280;64194;51.044;13.780;2022-12-10T01:11:17;99422.25;;;3.21;71.80
75609;BME280;64194;51.044;13.780;2022-12-10T01:15:27;99425.06;;;3.17;71.38
75609;BME280;64194;51.044;13.780;2022-12-10T01:19:29;99422.53;;;2.95;72.44
75609;BME280;64194;51.044;13.780;2022-12-10T01:23:37;99420.78;;;2.95;72.37
75609;BME280;64194;51.044;13.780;2022-12-10T01:27:39;99431.34;;;2.94;72.48
75609;BME280;64194;51.044;13.780;2022-12-10T01:31:41;99436.13;;;3.05;72.24
75609;BME280;64194;51.044;13.780;2022-12-10T01:35:43;99436.84;;;3.08;71.63
75609;BME280;64194;51.044;13.780;2022-12-10T01:39:45;99432.13;;;2.96;72.11
75609;BME280;64194;51.044;13.780;2022-12-10T01:48:27;99452.22;;;2.77;72.28
75609;BME280;64194;51.044;13.780;2022-12-10T01:52:29;99441.84;;;2.74;72.70
75609;BME280;64194;51.044;13.780;2022-12-10T01:56:35;99439.16;;;2.75;72.42
75609;BME280;64194;51.044;13.780;2022-12-10T02:00:43;99440.03;;;2.76;72.57
75609;BME280;64194;51.044;13.780;2022-12-10T02:05:23;99440.88;;;2.76;72.50
75609;BME280;64194;51.044;13.780;2022-12-10T02:10:01;99437.25;;;2.79;72.30
75609;BME280;64194;51.044;13.780;2022-12-10T02:14:38;99437.91;;;2.84;72.46
75609;BME280;64194;51.044;13.780;2022-12-10T02:19:00;99429.06;;;2.86;72.23
75609;BME280;64194;51.044;13.780;2022-12-10T02:23:09;99424.78;;;2.84;72.36
75609;BME280;64194;51.044;13.780;2022-12-10T02:27:29;99429.06;;;2.86;72.19
75609;BME280;64194;51.044;13.780;2022-12-10T02:31:35;99423.09;;;2.83;72.20
75609;BME280;64194;51.044;13.780;2022-12-10T02:35:38;99428.63;;;2.77;72.25
75609;BME280;64194;51.044;13.780;2022-12-10T02:39:46;99437.13;;;2.82;72.70
75609;BME280;64194;51.044;13.780;2022-12-10T02:43:52;99432.53;;;2.87;71.89
75609;BME280;64194;51.044;13.780;2022-12-10T02:47:58;99428.91;;;2.89;71.90
75609;BME280;64194;51.044;13.780;2022-12-10T02:52:17;99426.44;;;2.86;71.69
75609;BME280;64194;51.044;13.780;2022-12-10T02:56:28;99427.28;;;2.87;71.44
75609;BME280;64194;51.044;13.780;2022-12-10T03:00:37;99429.13;;;2.85;71.35
75609;BME280;64194;51.044;13.780;2022-12-10T03:05:33;99433.53;;;2.64;72.22
75609;BME280;64194;51.044;13.780;2022-12-10T03:09:22;99438.13;;;2.59;72.28
75609;BME280;64194;51.044;13.780;2022-12-10T03:13:32;99449.31;;;2.63;72.03
75609;BME280;64194;51.044;13.780;2022-12-10T03:17:38;99453.06;;;2.57;72.18
75609;BME280;64194;51.044;13.780;2022-12-10T03:21:43;99453.91;;;2.58;72.35
75609;BME280;64194;51.044;13.780;2022-12-10T03:25:49;99452.72;;;2.65;72.10
75609;BME280;64194;51.044;13.780;2022-12-10T03:29:54;99455.31;;;2.66;71.56
75609;BME280;64194;51.044;13.780;2022-12-10T03:33:56;99458.19;;;2.60;71.56
75609;BME280;64194;51.044;13.780;2022-12-10T03:37:58;99456.94;;;2.48;72.34
75609;BME280;64194;51.044;13.780;2022-12-10T03:42:00;99458.69;;;2.48;73.02
75609;BME280;64194;51.044;13.780;2022-12-10T03:46:02;99458.22;;;2.59;72.06
75609;BME280;64194;51.044;13.780;2022-12-10T03:50:04;99455.50;;;2.62;72.17
75609;BME280;64194;51.044;13.780;2022-12-10T03:54:06;99452.38;;;2.52;72.58
75609;BME280;64194;51.044;13.780;2022-12-10T03:58:07;99447.34;;;2.47;72.33
75609;BME280;64194;51.044;13.780;2022-12-10T04:02:09;99451.13;;;2.40;72.18
75609;BME280;64194;51.044;13.780;2022-12-10T04:06:15;99442.88;;;2.29;72.51
75609;BME280;64194;51.044;13.780;2022-12-10T04:10:17;99447.41;;;2.26;73.54
75609;BME280;64194;51.044;13.780;2022-12-10T04:14:19;99442.59;;;2.15;73.55
75609;BME280;64194;51.044;13.780;2022-12-10T04:18:38;99455.41;;;2.01;74.47
75609;BME280;64194;51.044;13.780;2022-12-10T04:22:40;99449.78;;;2.10;74.50
75609;BME280;64194;51.044;13.780;2022-12-10T04:27:08;99454.44;;;2.24;73.96
75609;BME280;64194;51.044;13.780;2022-12-10T04:31:11;99445.50;;;2.29;73.91
75609;BME280;64194;51.044;13.780;2022-12-10T04:35:13;99452.53;;;2.29;73.94
75609;BME280;64194;51.044;13.780;2022-12-10T04:39:16;99442.16;;;2.26;74.17
75609;BME280;64194;51.044;13.780;2022-12-10T04:43:18;99449.75;;;2.32;74.33
75609;BME280;64194;51.044;13.780;2022-12-10T04:47:19;99445.72;;;2.45;73.69
75609;BME280;64194;51.044;13.780;2022-12-10T04:51:21;99449.97;;;2.47;73.77
75609;BME280;64194;51.044;13.780;2022-12-10T04:55:23;99445.97;;;2.59;72.94
75609;BME280;64194;51.044;13.780;2022-12-10T04:59:24;99444.56;;;2.72;72.59
75609;BME280;64194;51.044;13.780;2022-12-10T05:03:27;99439.78;;;2.62;72.99
75609;BME280;64194;51.044;13.780;2022-12-10T05:07:28;99439.22;;;2.53;73.10
75609;BME280;64194;51.044;13.780;2022-12-10T05:11:31;99443.38;;;2.59;73.17
75609;BME280;64194;51.044;13.780;2022-12-10T05:15:37;99444.31;;;2.57;73.00
75609;BME280;64194;51.044;13.780;2022-12-10T05:19:39;99438.25;;;2.56;73.28
75609;BME280;64194;51.044;13.780;2022-12-10T05:23:43;99434.53;;;2.62;73.10
75609;BME280;64194;51.044;13.780;2022-12-10T05:27:46;99442.41;;;2.62;72.93
75609;BME280;64194;51.044;13.780;2022-12-10T05:31:48;99444.16;;;2.61;73.18
75609;BME280;64194;51.044;13.780;2022-12-10T05:36:04;99446.53;;;2.67;73.21
75609;BME280;64194;51.044;13.780;2022-12-10T05:40:06;99443.16;;;2.64;73.46
75609;BME280;64194;51.044;13.780;2022-12-10T05:44:09;99449.47;;;2.60;73.21
75609;BME280;64194;51.044;13.780;2022-12-10T05:48:12;99451.16;;;2.61;74.07
75609;BME280;64194;51.044;13.780;2022-12-10T05:52:13;99453.34;;;2.71;73.08
75609;BME280;64194;51.044;13.780;2022-12-10T05:56:17;99449.44;;;2.80;72.85
75609;BME280;64194;51.044;13.780;2022-12-10T06:00:22;99452.81;;;2.83;73.27
75609;BME280;64194;51.044;13.780;2022-12-10T06:04:24;99450.19;;;2.83;73.02
75609;BME280;64194;51.044;13.780;2022-12-10T06:08:26;99459.72;;;2.84;73.39
75609;BME280;64194;51.044;13.780;2022-12-10T06:12:27;99464.31;;;2.79;73.67
75609;BME280;64194;51.044;13.780;2022-12-10T06:16:29;99469.66;;;2.78;73.64
75609;BME280;64194;51.044;13.780;2022-12-10T06:20:31;99466.75;;;2.84;73.54
75609;BME280;64194;51.044;13.780;2022-12-10T06:24:32;99470.22;;;2.84;73.67
75609;BME280;64194;51.044;13.780;2022-12-10T06:28:34;99463.22;;;2.85;73.21
75609;BME280;64194;51.044;13.780;2022-12-10T06:32:36;99475.41;;;2.86;73.45
75609;BME280;64194;51.044;13.780;2022-12-10T06:36:38;99477.19;;;2.85;73.25
75609;BME280;64194;51.044;13.780;2022-12-10T06:40:39;99480.16;;;2.78;73.80
75609;BME280;64194;51.044;13.780;2022-12-10T06:44:41;99482.09;;;2.73;74.06
75609;BME280;64194;51.044;13.780;2022-12-10T06:48:43;99482.88;;;2.75;73.70
75609;BME280;64194;51.044;13.780;2022-12-10T06:52:45;99486.34;;;2.75;73.32
75609;BME280;64194;51.044;13.780;2022-12-10T06:56:53;99489.03;;;2.74;73.59
75609;BME280;64194;51.044;13.780;2022-12-10T07:01:05;99493.50;;;2.72;74.24
75609;BME280;64194;51.044;13.780;2022-12-10T07:05:12;99499.25;;;2.80;73.32
75609;BME280;64194;51.044;13.780;2022-12-10T07:09:16;99502.81;;;2.79;73.40
75609;BME280;64194;51.044;13.780;2022-12-10T07:13:18;99498.41;;;2.79;73.03
75609;BME280;64194;51.044;13.780;2022-12-10T07:17:19;99493.75;;;2.66;73.88
75609;BME280;64194;51.044;13.780;2022-12-10T07:21:29;99491.44;;;2.58;74.29
75609;BME280;64194;51.044;13.780;2022-12-10T07:25:32;99500.06;;;2.62;74.58
75609;BME280;64194;51.044;13.780;2022-12-10T07:29:34;99496.91;;;2.53;74.66
75609;BME280;64194;51.044;13.780;2022-12-10T07:33:36;99511.31;;;2.64;74.61
75609;BME280;64194;51.044;13.780;2022-12-10T07:37:39;99509.59;;;2.63;74.09
75609;BME280;64194;51.044;13.780;2022-12-10T07:41:40;99511.50;;;2.59;74.43
75609;BME280;64194;51.044;13.780;2022-12-10T07:45:42;99511.97;;;2.69;74.43
75609;BME280;64194;51.044;13.780;2022-12-10T07:49:44;99505.09;;;2.66;74.70
75609;BME280;64194;51.044;13.780;2022-12-10T07:53:46;99508.69;;;2.64;74.74
75609;BME280;64194;51.044;13.780;2022-12-10T07:57:48;99515.59;;;2.66;74.91
75609;BME280;64194;51.044;13.780;2022-12-10T08:01:49;99518.78;;;2.73;74.71
75609;BME280;64194;51.044;13.780;2022-12-10T08:06:02;99509.91;;;2.77;75.06
75609;BME280;64194;51.044;13.780;2022-12-10T08:10:04;99519.97;;;2.86;74.45
75609;BME280;64194;51.044;13.780;2022-12-10T08:14:07;99516.19;;;2.93;74.18
75609;BME280;64194;51.044;13.780;2022-12-10T08:18:08;99522.59;;;2.86;74.37
75609;BME280;64194;51.044;13.780;2022-12-10T08:22:10;99526.22;;;2.83;74.75
75609;BME280;64194;51.044;13.780;2022-12-10T08:26:17;99533.75;;;2.91;74.45
75609;BME280;64194;51.044;13.780;2022-12-10T08:30:19;99528.31;;;2.95;74.34
75609;BME280;64194;51.044;13.780;2022-12-10T08:34:21;99530.28;;;2.90;73.78
75609;BME280;64194;51.044;13.780;2022-12-10T08:38:22;99530.47;;;2.86;74.80
75609;BME280;64194;51.044;13.780;2022-12-10T08:42:23;99528.41;;;2.94;74.20
75609;BME280;64194;51.044;13.780;2022-12-10T08:46:25;99531.41;;;3.05;74.28
75609;BME280;64194;51.044;13.780;2022-12-10T08:50:28;99543.97;;;3.17;73.29
75609;BME280;64194;51.044;13.780;2022-12-10T08:58:51;99551.41;;;3.08;74.31
75609;BME280;64194;51.044;13.780;2022-12-10T09:02:52;99551.59;;;3.03;74.04
75609;BME280;64194;51.044;13.780;2022-12-10T09:06:55;99549.22;;;2.97;73.88
75609;BME280;64194;51.044;13.780;2022-12-10T09:11:08;99556.44;;;2.92;74.96
75609;BME280;64194;51.044;13.780;2022-12-10T09:15:37;99558.25;;;2.90;74.51
75609;BME280;64194;51.044;13.780;2022-12-10T09:24:30;99557.59;;;2.85;74.90
75609;BME280;64194;51.044;13.780;2022-12-10T09:28:33;99553.28;;;2.84;74.16
75609;BME280;64194;51.044;13.780;2022-12-10T09:32:35;99555.13;;;2.82;74.70
75609;BME280;64194;51.044;13.780;2022-12-10T09:36:36;99558.91;;;2.75;75.53
75609;BME280;64194;51.044;13.780;2022-12-10T09:40:56;99558.47;;;2.85;74.84
75609;BME280;64194;51.044;13.780;2022-12-10T10:01:15;99547.00;;;2.88;74.38
75609;BME280;64194;51.044;13.780;2022-12-10T10:05:51;99541.22;;;2.80;74.91
75609;BME280;64194;51.044;13.780;2022-12-10T10:10:05;99539.19;;;2.66;75.29
75609;BME280;64194;51.044;13.780;2022-12-10T10:14:24;99546.72;;;2.74;75.89
75609;BME280;64194;51.044;13.780;2022-12-10T10:23:58;99542.69;;;2.87;75.42
75609;BME280;64194;51.044;13.780;2022-12-10T10:28:03;99537.44;;;2.87;75.04
75609;BME280;64194;51.044;13.780;2022-12-10T10:36:58;99538.69;;;2.99;74.38
75609;BME280;64194;51.044;13.780;2022-12-10T10:41:03;99530.16;;;2.93;74.72
75609;BME280;64194;51.044;13.780;2022-12-10T10:45:47;99535.59;;;2.89;74.83
75609;BME280;64194;51.044;13.780;2022-12-10T10:50:23;99533.50;;;2.77;74.91
75609;BME280;64194;51.044;13.780;2022-12-10T11:01:52;99530.00;;;2.76;74.97
75609;BME280;64194;51.044;13.780;2022-12-10T11:05:57;99532.94;;;2.69;75.32
75609;BME280;64194;51.044;13.780;2022-12-10T11:20:01;99533.75;;;2.71;75.18
75609;BME280;64194;51.044;13.780;2022-12-10T11:24:11;99533.09;;;2.66;75.07
75609;BME280;64194;51.044;13.780;2022-12-10T11:37:09;99537.53;;;2.84;75.17
75609;BME280;64194;51.044;13.780;2022-12-10T11:50:22;99544.28;;;2.69;75.37
75609;BME280;64194;51.044;13.780;2022-12-10T12:09:25;99543.25;;;2.51;75.51
75609;BME280;64194;51.044;13.780;2022-12-10T12:22:50;99546.28;;;2.42;75.82
75609;BME280;64194;51.044;13.780;2022-12-10T12:26:58;99539.06;;;2.47;76.31
75609;BME280;64194;51.044;13.780;2022-12-10T12:31:09;99537.31;;;2.26;77.27
75609;BME280;64194;51.044;13.780;2022-12-10T12:35:21;99535.78;;;2.21;77.30
75609;BME280;64194;51.044;13.780;2022-12-10T12:48:44;99537.38;;;2.46;76.61
75609;BME280;64194;51.044;13.780;2022-12-10T12:53:12;99540.78;;;2.48;76.10
75609;BME280;64194;51.044;13.780;2022-12-10T12:58:10;99536.88;;;2.59;76.06
75609;BME280;64194;51.044;13.780;2022-12-10T13:06:30;99537.25;;;2.49;75.33
75609;BME280;64194;51.044;13.780;2022-12-10T13:15:42;99549.16;;;2.57;74.97
75609;BME280;64194;51.044;13.780;2022-12-10T13:28:52;99550.34;;;2.49;75.35
75609;BME280;64194;51.044;13.780;2022-12-10T13:33:45;99563.47;;;2.49;75.78
75609;BME280;64194;51.044;13.780;2022-12-10T13:43:40;99568.03;;;2.44;75.56
75609;BME280;64194;51.044;13.780;2022-12-10T13:59:11;99576.47;;;2.29;76.26
75609;BME280;64194;51.044;13.780;2022-12-10T14:07:43;99586.63;;;2.38;76.50
75609;BME280;64194;51.044;13.780;2022-12-10T14:12:14;99582.84;;;2.45;76.24
75609;BME280;64194;51.044;13.780;2022-12-10T18:27:38;99702.44;;;1.77;76.83
75609;BME280;64194;51.044;13.780;2022-12-10T18:31:42;99710.50;;;1.71;76.88
75609;BME280;64194;51.044;13.780;2022-12-10T18:35:45;99708.78;;;1.69;76.44
75609;BME280;64194;51.044;13.780;2022-12-10T18:39:46;99705.41;;;1.66;77.44
75609;BME280;64194;51.044;13.780;2022-12-10T18:53:34;99703.50;;;1.71;75.77
75609;BME280;64194;51.044;13.780;2022-12-10T18:57:36;99698.16;;;1.49;76.42
75609;BME280;64194;51.044;13.780;2022-12-10T19:02:11;99703.59;;;1.43;77.12
75609;BME280;64194;51.044;13.780;2022-12-10T19:06:14;99700.97;;;1.43;76.19
75609;BME280;64194;51.044;13.780;2022-12-10T19:10:19;99704.34;;;1.47;76.34
75609;BME280;64194;51.044;13.780;2022-12-10T19:14:36;99697.56;;;1.41;76.26
75609;BME280;64194;51.044;13.780;2022-12-10T19:19:04;99713.69;;;1.54;76.14
75609;BME280;64194;51.044;13.780;2022-12-10T19:23:09;99724.34;;;1.48;75.73
75609;BME280;64194;51.044;13.780;2022-12-10T19:27:11;99726.16;;;1.47;75.66
75609;BME280;64194;51.044;13.780;2022-12-10T19:31:33;99724.78;;;1.36;76.06
75609;BME280;64194;51.044;13.780;2022-12-10T19:36:01;99722.06;;;1.39;75.22
75609;BME280;64194;51.044;13.780;2022-12-10T19:40:05;99727.13;;;1.43;75.96
75609;BME280;64194;51.044;13.780;2022-12-10T19:44:07;99722.50;;;1.51;75.86
75609;BME280;64194;51.044;13.780;2022-12-10T19:48:09;99724.22;;;1.52;74.74
75609;BME280;64194;51.044;13.780;2022-12-10T19:52:11;99737.31;;;1.52;74.97
75609;BME280;64194;51.044;13.780;2022-12-10T19:56:18;99747.97;;;1.46;75.37
75609;BME280;64194;51.044;13.780;2022-12-10T20:00:45;99756.31;;;1.57;77.89
75609;BME280;64194;51.044;13.780;2022-12-10T20:04:48;99740.50;;;1.60;74.98
75609;BME280;64194;51.044;13.780;2022-12-10T20:13:43;99747.66;;;1.55;74.53
75609;BME280;64194;51.044;13.780;2022-12-10T20:17:48;99747.00;;;1.49;73.98
75609;BME280;64194;51.044;13.780;2022-12-10T20:21:59;99740.53;;;1.34;73.74
75609;BME280;64194;51.044;13.780;2022-12-10T20:26:01;99741.63;;;1.27;74.69
75609;BME280;64194;51.044;13.780;2022-12-10T20:35:46;99747.56;;;1.32;73.96
75609;BME280;64194;51.044;13.780;2022-12-10T20:39:48;99750.38;;;1.26;73.88
75609;BME280;64194;51.044;13.780;2022-12-10T20:44:09;99753.84;;;1.26;74.16
75609;BME280;64194;51.044;13.780;2022-12-10T20:48:11;99756.31;;;1.31;74.11
75609;BME280;64194;51.044;13.780;2022-12-10T20:52:13;99752.72;;;1.35;74.15
75609;BME280;64194;51.044;13.780;2022-12-10T21:05:57;99750.31;;;1.54;74.40
75609;BME280;64194;51.044;13.780;2022-12-10T21:10:34;99751.44;;;1.47;74.93
75609;BME280;64194;51.044;13.780;2022-12-10T21:19:46;99756.56;;;1.50;74.77
75609;BME280;64194;51.044;13.780;2022-12-10T21:23:47;99754.00;;;1.48;74.78
75609;BME280;64194;51.044;13.780;2022-12-10T21:27:50;99757.63;;;1.44;75.52
75609;BME280;64194;51.044;13.780;2022-12-10T21:31:51;99754.94;;;1.47;75.65
75609;BME280;64194;51.044;13.780;2022-12-10T21:35:53;99748.56;;;1.54;74.80
75609;BME280;64194;51.044;13.780;2022-12-10T21:39:56;99745.25;;;1.49;74.58
75609;BME280;64194;51.044;13.780;2022-12-10T21:43:58;99743.59;;;1.47;75.08
75609;BME280;64194;51.044;13.780;2022-12-10T21:48:00;99745.56;;;1.40;74.71
75609;BME280;64194;51.044;13.780;2022-12-10T21:52:02;99740.41;;;1.37;74.18
75609;BME280;64194;51.044;13.780;2022-12-10T21:56:08;99744.69;;;1.40;74.14
75609;BME280;64194;51.044;13.780;2022-12-10T22:00:11;99738.78;;;1.59;74.76
75609;BME280;64194;51.044;13.780;2022-12-10T22:04:13;99740.75;;;1.53;73.36
75609;BME280;64194;51.044;13.780;2022-12-10T22:08:18;99742.63;;;1.49;74.09
75609;BME280;64194;51.044;13.780;2022-12-10T22:12:20;99744.78;;;1.37;74.57
75609;BME280;64194;51.044;13.780;2022-12-10T22:21:14;99759.75;;;1.33;75.07
75609;BME280;64194;51.044;13.780;2022-12-10T22:25:16;99748.34;;;1.36;74.66
75609;BME280;64194;51.044;13.780;2022-12-10T22:29:18;99756.03;;;1.40;73.97
75609;BME280;64194;51.044;13.780;2022-12-10T22:33:19;99752.22;;;1.49;74.33
75609;BME280;64194;51.044;13.780;2022-12-10T22:37:22;99747.28;;;1.41;74.01
75609;BME280;64194;51.044;13.780;2022-12-10T22:41:23;99758.84;;;1.34;74.80
75609;BME280;64194;51.044;13.780;2022-12-10T22:45:25;99756.69;;;1.47;73.58
75609;BME280;64194;51.044;13.780;2022-12-10T22:49:26;99751.38;;;1.22;74.34
75609;BME280;64194;51.044;13.780;2022-12-10T22:53:28;99753.97;;;1.23;74.63
75609;BME280;64194;51.044;13.780;2022-12-10T22:57:30;99761.75;;;1.25;73.90
75609;BME280;64194;51.044;13.780;2022-12-10T23:01:31;99765.09;;;1.30;75.25
75609;BME280;64194;51.044;13.780;2022-12-10T23:05:34;99759.00;;;1.30;74.52
75609;BME280;64194;51.044;13.780;2022-12-10T23:09:36;99759.06;;;1.26;74.08
75609;BME280;64194;51.044;13.780;2022-12-10T23:13:37;99756.53;;;1.25;74.69
75609;BME280;64194;51.044;13.780;2022-12-10T23:17:39;99755.06;;;1.43;74.01
75609;BME280;64194;51.044;13.780;2022-12-10T23:21:40;99764.94;;;1.35;73.64
75609;BME280;64194;51.044;13.780;2022-12-10T23:25:42;99754.81;;;1.24;74.05
75609;BME280;64194;51.044;13.780;2022-12-10T23:29:44;99747.50;;;1.07;73.93
75609;BME280;64194;51.044;13.780;2022-12-10T23:33:46;99746.66;;;1.07;74.48
75609;BME280;64194;51.044;13.780;2022-12-10T23:47:15;99739.34;;;0.90;74.94
75609;BME280;64194;51.044;13.780;2022-12-10T23:51:16;99741.00;;;0.93;75.22
75609;BME280;64194;51.044;13.780;2022-12-10T23:55:18;99743.69;;;0.90;74.80
75609;BME280;64194;51.044;13.780;2022-12-10T23:59:19;99734.66;;;0.72;75.28
